sensor_id;sensor_type;location;lat;lon;timestamp;pressure;altitude;pressure_sealevel;temperature;humidity
80640;BME280;69992;60.170;24.692;2024-02-14T00:01:02;101445.70;;;-11.21;31.01
80640;BME280;69992;60.170;24.692;2024-02-14T00:03:27;101444.16;;;-9.11;30.92
80640;BME280;69992;60.170;24.692;2024-02-14T00:05:53;101440.16;;;-9.11;30.96
80640;BME280;69992;60.170;24.692;2024-02-14T00:08:22;101438.89;;;-11.18;31.01
80640;BME280;69992;60.170;24.692;2024-02-14T00:10:44;101438.93;;;-10.14;31.00
80640;BME280;69992;60.170;24.692;2024-02-14T00:13:09;101437.09;;;-9.14;31.01
80640;BME280;69992;60.170;24.692;2024-02-14T00:15:34;101435.08;;;-10.09;31.01
80640;BME280;69992;60.170;24.692;2024-02-14T00:18:00;101439.85;;;-10.03;31.00
80640;BME280;69992;60.170;24.692;2024-02-14T00:20:25;101441.54;;;-10.05;31.05
80640;BME280;69992;60.170;24.692;2024-02-14T00:22:50;101438.57;;;-11.09;31.09
80640;BME280;69992;60.170;24.692;2024-02-14T00:25:16;101437.92;;;-9.17;31.13
80640;BME280;69992;60.170;24.692;2024-02-14T00:27:41;101439.18;;;-11.12;31.14
80640;BME280;69992;60.170;24.692;2024-02-14T00:30:07;101440.62;;;-9.18;31.14
80640;BME280;69992;60.170;24.692;2024-02-14T00:32:32;101441.54;;;-11.04;31.11
80640;BME280;69992;60.170;24.692;2024-02-14T00:34:57;101446.79;;;-9.00;31.10
80640;BME280;69992;60.170;24.692;2024-02-14T00:37:22;101440.81;;;-10.87;31.08
80640;BME280;69992;60.170;24.692;2024-02-14T00:39:47;101436.50;;;-10.82;31.06
80640;BME280;69992;60.170;24.692;2024-02-14T00:42:13;101443.54;;;-10.87;31.10
80640;BME280;69992;60.170;24.692;2024-02-14T00:44:38;101439.86;;;-10.89;31.11
80640;BME280;69992;60.170;24.692;2024-02-14T00:47:03;101439.75;;;-8.92;31.14
80640;BME280;69992;60.170;24.692;2024-02-14T00:49:28;101440.40;;;-9.88;31.13
80640;BME280;69992;60.170;24.692;2024-02-14T00:51:53;101436.60;;;-9.77;31.09
80640;BME280;69992;60.170;24.692;2024-02-14T00:54:18;101431.16;;;-10.66;31.08
80640;BME280;69992;60.170;24.692;2024-02-14T00:56:44;101427.51;;;-9.65;31.08
80640;BME280;69992;60.170;24.692;2024-02-14T00:59:10;101432.90;;;-8.66;31.09
80640;BME280;69992;60.170;24.692;2024-02-14T01:01:34;101423.87;;;-10.58;31.10
80640;BME280;69992;60.170;24.692;2024-02-14T01:03:59;101426.84;;;-9.58;31.09
80640;BME280;69992;60.170;24.692;2024-02-14T01:06:24;101418.85;;;-9.56;31.12
80640;BME280;69992;60.170;24.692;2024-02-14T01:08:50;101420.12;;;-9.62;31.13
80640;BME280;69992;60.170;24.692;2024-02-14T01:11:16;101421.87;;;-10.60;31.15
80640;BME280;69992;60.170;24.692;2024-02-14T01:13:40;101423.29;;;-10.49;31.12
80640;BME280;69992;60.170;24.692;2024-02-14T01:16:06;101420.53;;;-9.47;31.14
80640;BME280;69992;60.170;24.692;2024-02-14T01:18:30;101421.80;;;-10.41;31.12
80640;BME280;69992;60.170;24.692;2024-02-14T01:20:57;101423.34;;;-9.31;31.06
80640;BME280;69992;60.170;24.692;2024-02-14T01:23:21;101426.13;;;-10.33;31.11
80640;BME280;69992;60.170;24.692;2024-02-14T01:25:46;101418.94;;;-10.21;31.10
80640;BME280;69992;60.170;24.692;2024-02-14T01:28:12;101422.63;;;-10.24;31.14
80640;BME280;69992;60.170;24.692;2024-02-14T01:30:37;101420.84;;;-10.36;31.23
80640;BME280;69992;60.170;24.692;2024-02-14T01:33:03;101417.11;;;-8.43;31.21
80640;BME280;69992;60.170;24.692;2024-02-14T01:35:28;101416.28;;;-10.39;31.25
80640;BME280;69992;60.170;24.692;2024-02-14T01:37:54;101415.62;;;-10.37;31.27
80640;BME280;69992;60.170;24.692;2024-02-14T01:40:20;101415.54;;;-9.34;31.24
80640;BME280;69992;60.170;24.692;2024-02-14T01:42:45;101414.78;;;-10.30;31.23
80640;BME280;69992;60.170;24.692;2024-02-14T01:45:11;101411.35;;;-10.22;31.26
80640;BME280;69992;60.170;24.692;2024-02-14T01:47:37;101419.60;;;-10.26;31.29
80640;BME280;69992;60.170;24.692;2024-02-14T01:50:03;101418.36;;;-9.23;31.29
80640;BME280;69992;60.170;24.692;2024-02-14T01:52:28;101418.35;;;-10.14;31.28
80640;BME280;69992;60.170;24.692;2024-02-14T01:54:54;101416.76;;;-10.13;31.30
80640;BME280;69992;60.170;24.692;2024-02-14T01:57:19;101420.37;;;-11.02;31.26
80640;BME280;69992;60.170;24.692;2024-02-14T01:59:44;101417.09;;;-9.02;31.26
80640;BME280;69992;60.170;24.692;2024-02-14T02:02:09;101417.13;;;-9.96;31.26
80640;BME280;69992;60.170;24.692;2024-02-14T02:04:35;101421.32;;;-8.90;31.31
80640;BME280;69992;60.170;24.692;2024-02-14T02:07:01;101417.88;;;-9.91;31.32
80640;BME280;69992;60.170;24.692;2024-02-14T02:09:26;101420.99;;;-9.79;31.27
80640;BME280;69992;60.170;24.692;2024-02-14T02:11:52;101423.96;;;-10.67;31.32
80640;BME280;69992;60.170;24.692;2024-02-14T02:14:17;101421.41;;;-11.64;31.28
80640;BME280;69992;60.170;24.692;2024-02-14T02:16:43;101422.38;;;-9.54;31.24
80640;BME280;69992;60.170;24.692;2024-02-14T02:19:12;101422.80;;;-9.47;31.24
80640;BME280;69992;60.170;24.692;2024-02-14T02:21:33;101424.97;;;-9.39;31.25
80640;BME280;69992;60.170;24.692;2024-02-14T02:23:59;101425.53;;;-9.20;31.19
80640;BME280;69992;60.170;24.692;2024-02-14T02:26:24;101421.24;;;-10.09;31.19
80640;BME280;69992;60.170;24.692;2024-02-14T02:28:49;101416.40;;;-9.01;31.15
80640;BME280;69992;60.170;24.692;2024-02-14T02:31:15;101417.26;;;-8.97;31.15
80640;BME280;69992;60.170;24.692;2024-02-14T02:33:40;101419.45;;;-9.04;31.24
80640;BME280;69992;60.170;24.692;2024-02-14T02:36:05;101415.53;;;-9.14;31.28
80640;BME280;69992;60.170;24.692;2024-02-14T02:38:30;101422.55;;;-9.09;31.26
80640;BME280;69992;60.170;24.692;2024-02-14T02:40:55;101421.87;;;-9.04;31.27
80640;BME280;69992;60.170;24.692;2024-02-14T02:43:21;101421.26;;;-10.06;31.35
80640;BME280;69992;60.170;24.692;2024-02-14T02:45:46;101417.37;;;-9.06;31.31
80640;BME280;69992;60.170;24.692;2024-02-14T02:48:11;101415.21;;;-9.01;31.29
80640;BME280;69992;60.170;24.692;2024-02-14T02:50:36;101415.62;;;-8.94;31.28
80640;BME280;69992;60.170;24.692;2024-02-14T02:53:01;101414.73;;;-9.87;31.29
80640;BME280;69992;60.170;24.692;2024-02-14T02:55:26;101413.52;;;-9.80;31.28
80640;BME280;69992;60.170;24.692;2024-02-14T02:57:51;101417.97;;;-8.72;31.27
80640;BME280;69992;60.170;24.692;2024-02-14T03:00:18;101420.29;;;-9.71;31.28
80640;BME280;69992;60.170;24.692;2024-02-14T03:02:42;101422.81;;;-8.74;31.31
80640;BME280;69992;60.170;24.692;2024-02-14T03:05:08;101419.26;;;-8.66;31.28
80640;BME280;69992;60.170;24.692;2024-02-14T03:07:35;101423.13;;;-9.59;31.29
80640;BME280;69992;60.170;24.692;2024-02-14T03:09:57;101421.83;;;-8.59;31.29
80640;BME280;69992;60.170;24.692;2024-02-14T03:12:23;101423.23;;;-9.49;31.28
80640;BME280;69992;60.170;24.692;2024-02-14T03:14:48;101413.16;;;-8.50;31.28
80640;BME280;69992;60.170;24.692;2024-02-14T03:17:14;101416.45;;;-8.39;31.25
80640;BME280;69992;60.170;24.692;2024-02-14T03:19:39;101411.98;;;-8.36;31.27
80640;BME280;69992;60.170;24.692;2024-02-14T03:22:04;101414.95;;;-8.36;31.27
80640;BME280;69992;60.170;24.692;2024-02-14T03:24:28;101412.62;;;-9.29;31.28
80640;BME280;69992;60.170;24.692;2024-02-14T03:26:54;101414.09;;;-8.21;31.25
80640;BME280;69992;60.170;24.692;2024-02-14T03:29:19;101416.53;;;-9.17;31.28
80640;BME280;69992;60.170;24.692;2024-02-14T03:31:44;101417.10;;;-8.15;31.28
80640;BME280;69992;60.170;24.692;2024-02-14T03:34:09;101415.39;;;-8.11;31.27
80640;BME280;69992;60.170;24.692;2024-02-14T03:36:36;101414.92;;;-9.07;31.29
80640;BME280;69992;60.170;24.692;2024-02-14T03:39:00;101422.31;;;-8.96;31.27
80640;BME280;69992;60.170;24.692;2024-02-14T03:41:24;101423.33;;;-8.83;31.25
80640;BME280;69992;60.170;24.692;2024-02-14T03:43:50;101429.00;;;-8.78;31.23
80640;BME280;69992;60.170;24.692;2024-02-14T03:46:16;101431.91;;;-9.77;31.26
80640;BME280;69992;60.170;24.692;2024-02-14T03:48:40;101434.93;;;-8.80;31.29
80640;BME280;69992;60.170;24.692;2024-02-14T03:51:06;101435.98;;;-8.71;31.27
80640;BME280;69992;60.170;24.692;2024-02-14T03:53:31;101438.84;;;-7.67;31.27
80640;BME280;69992;60.170;24.692;2024-02-14T03:55:56;101439.36;;;-7.58;31.27
80640;BME280;69992;60.170;24.692;2024-02-14T03:58:22;101437.50;;;-8.55;31.27
80640;BME280;69992;60.170;24.692;2024-02-14T04:00:46;101436.61;;;-7.57;31.29
80640;BME280;69992;60.170;24.692;2024-02-14T04:03:12;101438.66;;;-8.60;31.32
80640;BME280;69992;60.170;24.692;2024-02-14T04:05:36;101438.86;;;-9.50;31.33
80640;BME280;69992;60.170;24.692;2024-02-14T04:08:02;101441.80;;;-8.50;31.35
80640;BME280;69992;60.170;24.692;2024-02-14T04:10:27;101441.52;;;-8.45;31.34
80640;BME280;69992;60.170;24.692;2024-02-14T04:12:52;101446.71;;;-8.36;31.32
80640;BME280;69992;60.170;24.692;2024-02-14T04:15:18;101445.15;;;-8.30;31.33
80640;BME280;69992;60.170;24.692;2024-02-14T04:17:43;101443.52;;;-9.27;31.33
80640;BME280;69992;60.170;24.692;2024-02-14T04:20:12;101443.20;;;-8.19;31.33
80640;BME280;69992;60.170;24.692;2024-02-14T04:22:34;101444.74;;;-9.02;31.30
80640;BME280;69992;60.170;24.692;2024-02-14T04:24:59;101444.85;;;-7.93;31.27
80640;BME280;69992;60.170;24.692;2024-02-14T04:27:25;101447.46;;;-8.85;31.27
80640;BME280;69992;60.170;24.692;2024-02-14T04:29:50;101446.38;;;-8.75;31.26
80640;BME280;69992;60.170;24.692;2024-02-14T04:32:16;101448.15;;;-8.67;31.25
80640;BME280;69992;60.170;24.692;2024-02-14T04:34:41;101448.20;;;-7.69;31.26
80640;BME280;69992;60.170;24.692;2024-02-14T04:37:06;101450.76;;;-7.71;31.30
80640;BME280;69992;60.170;24.692;2024-02-14T04:39:31;101450.54;;;-8.71;31.33
80640;BME280;69992;60.170;24.692;2024-02-14T04:41:57;101452.73;;;-7.75;31.36
80640;BME280;69992;60.170;24.692;2024-02-14T04:44:22;101454.02;;;-8.69;31.38
80640;BME280;69992;60.170;24.692;2024-02-14T04:46:47;101453.22;;;-7.60;31.35
80640;BME280;69992;60.170;24.692;2024-02-14T04:49:12;101453.16;;;-7.49;31.34
80640;BME280;69992;60.170;24.692;2024-02-14T04:51:37;101456.71;;;-8.39;31.33
80640;BME280;69992;60.170;24.692;2024-02-14T04:54:02;101455.73;;;-8.37;31.35
80640;BME280;69992;60.170;24.692;2024-02-14T04:56:27;101456.33;;;-8.31;31.35
80640;BME280;69992;60.170;24.692;2024-02-14T04:58:52;101457.48;;;-8.19;31.32
80640;BME280;69992;60.170;24.692;2024-02-14T05:01:18;101461.81;;;-8.15;31.33
80640;BME280;69992;60.170;24.692;2024-02-14T05:03:43;101459.82;;;-8.14;31.36
80640;BME280;69992;60.170;24.692;2024-02-14T05:06:09;101463.64;;;-9.07;31.36
80640;BME280;69992;60.170;24.692;2024-02-14T05:08:34;101461.32;;;-8.02;31.38
80640;BME280;69992;60.170;24.692;2024-02-14T05:10:59;101468.75;;;-9.02;31.38
80640;BME280;69992;60.170;24.692;2024-02-14T05:13:24;101470.98;;;-8.92;31.38
80640;BME280;69992;60.170;24.692;2024-02-14T05:15:50;101470.67;;;-7.83;31.34
80640;BME280;69992;60.170;24.692;2024-02-14T05:18:16;101475.39;;;-8.79;31.36
80640;BME280;69992;60.170;24.692;2024-02-14T05:20:41;101482.33;;;-8.71;31.36
80640;BME280;69992;60.170;24.692;2024-02-14T05:23:06;101482.94;;;-7.59;31.33
80640;BME280;69992;60.170;24.692;2024-02-14T05:25:31;101486.24;;;-8.40;31.29
80640;BME280;69992;60.170;24.692;2024-02-14T05:27:56;101486.59;;;-8.33;31.28
80640;BME280;69992;60.170;24.692;2024-02-14T05:30:22;101486.19;;;-8.32;31.30
80640;BME280;69992;60.170;24.692;2024-02-14T05:32:47;101484.19;;;-7.30;31.30
80640;BME280;69992;60.170;24.692;2024-02-14T05:35:12;101484.35;;;-7.27;31.31
80640;BME280;69992;60.170;24.692;2024-02-14T05:37:37;101493.31;;;-7.24;31.33
80640;BME280;69992;60.170;24.692;2024-02-14T05:40:04;101496.15;;;-7.14;31.32
80640;BME280;69992;60.170;24.692;2024-02-14T05:42:28;101498.23;;;-8.05;31.32
80640;BME280;69992;60.170;24.692;2024-02-14T05:44:54;101498.65;;;-7.02;31.33
80640;BME280;69992;60.170;24.692;2024-02-14T05:47:19;101501.42;;;-7.99;31.34
80640;BME280;69992;60.170;24.692;2024-02-14T05:49:45;101502.30;;;-7.91;31.33
80640;BME280;69992;60.170;24.692;2024-02-14T05:52:11;101502.91;;;-6.83;31.33
80640;BME280;69992;60.170;24.692;2024-02-14T05:54:37;101503.49;;;-7.75;31.34
80640;BME280;69992;60.170;24.692;2024-02-14T05:57:06;101507.47;;;-6.70;31.34
80640;BME280;69992;60.170;24.692;2024-02-14T05:59:31;101509.82;;;-7.64;31.35
80640;BME280;69992;60.170;24.692;2024-02-14T06:01:54;101510.74;;;-6.56;31.32
80640;BME280;69992;60.170;24.692;2024-02-14T06:04:18;101506.78;;;-7.48;31.32
80640;BME280;69992;60.170;24.692;2024-02-14T06:06:43;101508.99;;;-7.43;31.32
80640;BME280;69992;60.170;24.692;2024-02-14T06:09:09;101512.25;;;-7.46;31.33
80640;BME280;69992;60.170;24.692;2024-02-14T06:11:34;101510.77;;;-8.41;31.35
80640;BME280;69992;60.170;24.692;2024-02-14T06:13:59;101517.17;;;-6.41;31.35
80640;BME280;69992;60.170;24.692;2024-02-14T06:16:25;101517.42;;;-8.21;31.34
80640;BME280;69992;60.170;24.692;2024-02-14T06:18:50;101520.09;;;-7.17;31.32
80640;BME280;69992;60.170;24.692;2024-02-14T06:21:16;101520.07;;;-8.12;31.32
80640;BME280;69992;60.170;24.692;2024-02-14T06:23:44;101521.63;;;-6.13;31.34
80640;BME280;69992;60.170;24.692;2024-02-14T06:26:07;101519.98;;;-8.02;31.32
80640;BME280;69992;60.170;24.692;2024-02-14T06:28:31;101520.50;;;-7.96;31.30
80640;BME280;69992;60.170;24.692;2024-02-14T06:30:56;101523.34;;;-6.87;31.30
80640;BME280;69992;60.170;24.692;2024-02-14T06:33:22;101528.79;;;-5.88;31.33
80640;BME280;69992;60.170;24.692;2024-02-14T06:35:57;101531.23;;;-6.82;31.34
80640;BME280;69992;60.170;24.692;2024-02-14T06:38:13;101534.29;;;-7.72;31.35
80640;BME280;69992;60.170;24.692;2024-02-14T06:40:38;101534.81;;;-7.61;31.33
80640;BME280;69992;60.170;24.692;2024-02-14T06:43:04;101533.55;;;-7.53;31.32
80640;BME280;69992;60.170;24.692;2024-02-14T06:45:29;101534.89;;;-7.54;31.35
80640;BME280;69992;60.170;24.692;2024-02-14T06:47:54;101535.96;;;-7.48;31.35
80640;BME280;69992;60.170;24.692;2024-02-14T06:50:19;101536.67;;;-7.42;31.37
80640;BME280;69992;60.170;24.692;2024-02-14T06:52:54;101539.52;;;-6.37;31.36
80640;BME280;69992;60.170;24.692;2024-02-14T06:55:10;101539.86;;;-7.36;31.38
80640;BME280;69992;60.170;24.692;2024-02-14T06:57:35;101539.61;;;-6.40;31.42
80640;BME280;69992;60.170;24.692;2024-02-14T07:00:00;101542.45;;;-7.34;31.43
80640;BME280;69992;60.170;24.692;2024-02-14T07:02:26;101543.98;;;-7.21;31.43
80640;BME280;69992;60.170;24.692;2024-02-14T07:04:51;101544.69;;;-7.12;31.42
80640;BME280;69992;60.170;24.692;2024-02-14T07:07:20;101546.26;;;-8.04;31.41
80640;BME280;69992;60.170;24.692;2024-02-14T07:09:42;101549.34;;;-6.99;31.43
80640;BME280;69992;60.170;24.692;2024-02-14T07:12:07;101549.77;;;-5.97;31.45
80640;BME280;69992;60.170;24.692;2024-02-14T07:14:32;101552.65;;;-6.83;31.44
80640;BME280;69992;60.170;24.692;2024-02-14T07:16:57;101553.97;;;-5.68;31.43
80640;BME280;69992;60.170;24.692;2024-02-14T07:19:22;101553.90;;;-6.58;31.42
80640;BME280;69992;60.170;24.692;2024-02-14T07:21:47;101551.30;;;-5.54;31.42
80640;BME280;69992;60.170;24.692;2024-02-14T07:24:13;101552.74;;;-6.47;31.44
80640;BME280;69992;60.170;24.692;2024-02-14T07:26:39;101553.59;;;-6.40;31.46
80640;BME280;69992;60.170;24.692;2024-02-14T07:29:04;101556.69;;;-6.33;31.48
80640;BME280;69992;60.170;24.692;2024-02-14T07:31:29;101559.06;;;-7.17;31.46
80640;BME280;69992;60.170;24.692;2024-02-14T07:33:55;101561.99;;;-6.08;31.45
80640;BME280;69992;60.170;24.692;2024-02-14T07:36:20;101566.26;;;-5.96;31.44
80640;BME280;69992;60.170;24.692;2024-02-14T07:38:45;101571.34;;;-5.79;31.41
80640;BME280;69992;60.170;24.692;2024-02-14T07:41:10;101570.33;;;-6.76;31.44
80640;BME280;69992;60.170;24.692;2024-02-14T07:43:38;101570.97;;;-6.85;31.49
80640;BME280;69992;60.170;24.692;2024-02-14T07:46:00;101573.78;;;-6.82;31.53
80640;BME280;69992;60.170;24.692;2024-02-14T07:48:26;101577.07;;;-5.76;31.52
80640;BME280;69992;60.170;24.692;2024-02-14T07:50:50;101579.57;;;-5.71;31.53
80640;BME280;69992;60.170;24.692;2024-02-14T07:53:16;101584.21;;;-7.57;31.54
80640;BME280;69992;60.170;24.692;2024-02-14T07:55:41;101585.58;;;-5.47;31.53
80640;BME280;69992;60.170;24.692;2024-02-14T07:58:07;101588.94;;;-6.41;31.54
80640;BME280;69992;60.170;24.692;2024-02-14T08:00:32;101594.39;;;-6.34;31.56
80640;BME280;69992;60.170;24.692;2024-02-14T08:02:58;101594.72;;;-5.27;31.54
80640;BME280;69992;60.170;24.692;2024-02-14T08:05:23;101597.39;;;-5.21;31.53
80640;BME280;69992;60.170;24.692;2024-02-14T08:07:48;101596.07;;;-5.12;31.55
80640;BME280;69992;60.170;24.692;2024-02-14T08:10:14;101598.73;;;-4.99;31.52
80640;BME280;69992;60.170;24.692;2024-02-14T08:12:39;101599.22;;;-4.95;31.54
80640;BME280;69992;60.170;24.692;2024-02-14T08:15:05;101603.47;;;-6.80;31.52
80640;BME280;69992;60.170;24.692;2024-02-14T08:17:30;101609.06;;;-5.68;31.51
80640;BME280;69992;60.170;24.692;2024-02-14T08:20:06;101611.37;;;-6.52;31.47
80640;BME280;69992;60.170;24.692;2024-02-14T08:22:21;101612.06;;;-6.39;31.47
80640;BME280;69992;60.170;24.692;2024-02-14T08:24:47;101613.51;;;-4.29;31.43
80640;BME280;69992;60.170;24.692;2024-02-14T08:27:13;101616.93;;;-5.16;31.44
80640;BME280;69992;60.170;24.692;2024-02-14T08:29:38;101620.91;;;-5.20;31.49
80640;BME280;69992;60.170;24.692;2024-02-14T08:32:04;101623.90;;;-6.05;31.49
80640;BME280;69992;60.170;24.692;2024-02-14T08:34:30;101628.17;;;-5.94;31.46
80640;BME280;69992;60.170;24.692;2024-02-14T08:36:55;101626.25;;;-3.89;31.44
80640;BME280;69992;60.170;24.692;2024-02-14T08:39:21;101626.32;;;-5.72;31.44
80640;BME280;69992;60.170;24.692;2024-02-14T08:41:46;101630.74;;;-5.56;31.42
80640;BME280;69992;60.170;24.692;2024-02-14T08:44:11;101633.43;;;-5.55;31.44
80640;BME280;69992;60.170;24.692;2024-02-14T08:46:37;101636.28;;;-5.49;31.46
80640;BME280;69992;60.170;24.692;2024-02-14T08:49:02;101640.58;;;-5.40;31.45
80640;BME280;69992;60.170;24.692;2024-02-14T08:51:27;101640.83;;;-5.38;31.46
80640;BME280;69992;60.170;24.692;2024-02-14T08:53:53;101641.33;;;-4.34;31.46
80640;BME280;69992;60.170;24.692;2024-02-14T08:56:18;101644.53;;;-5.29;31.47
80640;BME280;69992;60.170;24.692;2024-02-14T08:58:44;101647.71;;;-5.27;31.49
80640;BME280;69992;60.170;24.692;2024-02-14T09:01:09;101651.13;;;-4.21;31.50
80640;BME280;69992;60.170;24.692;2024-02-14T09:03:35;101656.54;;;-5.02;31.49
80640;BME280;69992;60.170;24.692;2024-02-14T09:06:00;101658.14;;;-5.97;31.48
80640;BME280;69992;60.170;24.692;2024-02-14T09:08:26;101660.13;;;-4.91;31.48
80640;BME280;69992;60.170;24.692;2024-02-14T09:10:51;101665.46;;;-4.91;31.49
80640;BME280;69992;60.170;24.692;2024-02-14T09:13:17;101667.05;;;-6.78;31.49
80640;BME280;69992;60.170;24.692;2024-02-14T09:15:43;101669.63;;;-5.77;31.51
80640;BME280;69992;60.170;24.692;2024-02-14T09:18:08;101670.17;;;-4.68;31.51
80640;BME280;69992;60.170;24.692;2024-02-14T09:20:33;101672.31;;;-4.60;31.50
80640;BME280;69992;60.170;24.692;2024-02-14T09:22:59;101675.85;;;-4.61;31.53
80640;BME280;69992;60.170;24.692;2024-02-14T09:25:24;101677.06;;;-4.57;31.56
80640;BME280;69992;60.170;24.692;2024-02-14T09:27:50;101679.07;;;-4.51;31.56
80640;BME280;69992;60.170;24.692;2024-02-14T09:30:15;101681.40;;;-5.48;31.58
80640;BME280;69992;60.170;24.692;2024-02-14T09:32:41;101683.99;;;-4.43;31.59
80640;BME280;69992;60.170;24.692;2024-02-14T09:35:07;101684.78;;;-5.32;31.58
80640;BME280;69992;60.170;24.692;2024-02-14T09:37:32;101689.02;;;-4.27;31.58
80640;BME280;69992;60.170;24.692;2024-02-14T09:39:57;101689.19;;;-4.23;31.60
80640;BME280;69992;60.170;24.692;2024-02-14T09:42:28;101692.60;;;-4.21;31.61
80640;BME280;69992;60.170;24.692;2024-02-14T09:44:51;101693.37;;;-4.12;31.60
80640;BME280;69992;60.170;24.692;2024-02-14T09:47:15;101695.07;;;-4.08;31.59
80640;BME280;69992;60.170;24.692;2024-02-14T09:49:40;101693.70;;;-4.08;31.60
80640;BME280;69992;60.170;24.692;2024-02-14T09:52:06;101694.07;;;-4.06;31.64
80640;BME280;69992;60.170;24.692;2024-02-14T09:54:31;101696.86;;;-3.94;31.61
80640;BME280;69992;60.170;24.692;2024-02-14T09:56:59;101697.74;;;-3.88;31.61
80640;BME280;69992;60.170;24.692;2024-02-14T09:59:22;101701.72;;;-3.78;31.59
80640;BME280;69992;60.170;24.692;2024-02-14T10:01:47;101704.03;;;-3.77;31.61
80640;BME280;69992;60.170;24.692;2024-02-14T10:04:12;101708.89;;;-3.77;31.63
80640;BME280;69992;60.170;24.692;2024-02-14T10:06:37;101708.34;;;-4.68;31.63
80640;BME280;69992;60.170;24.692;2024-02-14T10:09:03;101711.15;;;-4.70;31.64
80640;BME280;69992;60.170;24.692;2024-02-14T10:11:28;101713.18;;;-5.69;31.68
80640;BME280;69992;60.170;24.692;2024-02-14T10:13:53;101716.18;;;-4.70;31.68
80640;BME280;69992;60.170;24.692;2024-02-14T10:16:19;101716.80;;;-5.66;31.68
80640;BME280;69992;60.170;24.692;2024-02-14T10:18:44;101716.15;;;-4.72;31.68
80640;BME280;69992;60.170;24.692;2024-02-14T10:21:15;101715.23;;;-4.77;31.71
80640;BME280;69992;60.170;24.692;2024-02-14T10:23:35;101718.49;;;-5.70;31.71
80640;BME280;69992;60.170;24.692;2024-02-14T10:26:01;101717.25;;;-3.66;31.71
80640;BME280;69992;60.170;24.692;2024-02-14T10:28:26;101717.15;;;-3.58;31.72
80640;BME280;69992;60.170;24.692;2024-02-14T10:30:55;101721.75;;;-5.65;31.37
80640;BME280;69992;60.170;24.692;2024-02-14T10:33:20;101724.46;;;-5.52;31.17
80640;BME280;69992;60.170;24.692;2024-02-14T10:35:43;101725.93;;;-3.00;31.39
80640;BME280;69992;60.170;24.692;2024-02-14T10:38:12;101730.78;;;-5.14;31.52
80640;BME280;69992;60.170;24.692;2024-02-14T10:40:35;101732.17;;;-5.14;31.57
80640;BME280;69992;60.170;24.692;2024-02-14T10:42:59;101732.40;;;-5.17;31.59
80640;BME280;69992;60.170;24.692;2024-02-14T10:45:25;101735.81;;;-4.25;31.65
80640;BME280;69992;60.170;24.692;2024-02-14T10:47:51;101741.65;;;-5.23;31.70
80640;BME280;69992;60.170;24.692;2024-02-14T10:50:21;101742.84;;;-5.16;31.69
80640;BME280;69992;60.170;24.692;2024-02-14T10:52:41;101744.20;;;-3.13;31.69
80640;BME280;69992;60.170;24.692;2024-02-14T10:55:07;101747.91;;;-5.07;31.70
80640;BME280;69992;60.170;24.692;2024-02-14T10:57:32;101745.99;;;-5.03;31.73
80640;BME280;69992;60.170;24.692;2024-02-14T10:59:59;101745.16;;;-4.97;31.73
80640;BME280;69992;60.170;24.692;2024-02-14T11:02:23;101741.62;;;-4.89;31.72
80640;BME280;69992;60.170;24.692;2024-02-14T11:04:48;101745.78;;;-4.93;31.73
80640;BME280;69992;60.170;24.692;2024-02-14T11:07:17;101747.08;;;-3.99;31.75
80640;BME280;69992;60.170;24.692;2024-02-14T11:09:43;101748.58;;;-4.98;31.79
80640;BME280;69992;60.170;24.692;2024-02-14T11:12:07;101748.40;;;-3.06;31.78
80640;BME280;69992;60.170;24.692;2024-02-14T11:14:34;101747.75;;;-5.01;31.80
80640;BME280;69992;60.170;24.692;2024-02-14T11:16:55;101748.84;;;-4.95;31.80
80640;BME280;69992;60.170;24.692;2024-02-14T11:19:30;101750.38;;;-3.94;31.79
80640;BME280;69992;60.170;24.692;2024-02-14T11:21:47;101750.63;;;-3.98;31.79
80640;BME280;69992;60.170;24.692;2024-02-14T11:24:13;101754.67;;;-4.96;31.80
80640;BME280;69992;60.170;24.692;2024-02-14T11:26:39;101755.66;;;-3.04;31.84
80640;BME280;69992;60.170;24.692;2024-02-14T11:29:04;101759.05;;;-4.98;31.83
80640;BME280;69992;60.170;24.692;2024-02-14T11:31:33;101762.66;;;-4.96;31.84
80640;BME280;69992;60.170;24.692;2024-02-14T11:33:53;101764.24;;;-4.90;31.82
80640;BME280;69992;60.170;24.692;2024-02-14T11:36:19;101767.35;;;-4.96;31.85
80640;BME280;69992;60.170;24.692;2024-02-14T11:38:44;101769.03;;;-3.94;31.85
80640;BME280;69992;60.170;24.692;2024-02-14T11:41:11;101768.97;;;-4.82;31.83
80640;BME280;69992;60.170;24.692;2024-02-14T11:43:35;101772.29;;;-3.82;31.83
80640;BME280;69992;60.170;24.692;2024-02-14T11:46:00;101774.73;;;-4.87;31.85
80640;BME280;69992;60.170;24.692;2024-02-14T11:48:26;101774.83;;;-3.95;31.89
80640;BME280;69992;60.170;24.692;2024-02-14T11:50:54;101777.56;;;-3.92;31.89
80640;BME280;69992;60.170;24.692;2024-02-14T11:53:17;101778.54;;;-4.94;31.91
80640;BME280;69992;60.170;24.692;2024-02-14T11:55:42;101779.82;;;-4.01;31.91
80640;BME280;69992;60.170;24.692;2024-02-14T11:58:08;101781.42;;;-4.94;31.91
80640;BME280;69992;60.170;24.692;2024-02-14T12:00:32;101784.10;;;-4.87;31.89
80640;BME280;69992;60.170;24.692;2024-02-14T12:02:58;101785.06;;;-3.90;31.91
80640;BME280;69992;60.170;24.692;2024-02-14T12:05:23;101783.59;;;-4.89;31.89
80640;BME280;69992;60.170;24.692;2024-02-14T12:07:49;101787.12;;;-5.01;31.91
80640;BME280;69992;60.170;24.692;2024-02-14T12:10:15;101789.14;;;-4.06;31.91
80640;BME280;69992;60.170;24.692;2024-02-14T12:12:40;101789.64;;;-4.07;31.91
80640;BME280;69992;60.170;24.692;2024-02-14T12:15:06;101790.04;;;-4.08;31.92
80640;BME280;69992;60.170;24.692;2024-02-14T12:17:31;101789.38;;;-4.99;31.91
80640;BME280;69992;60.170;24.692;2024-02-14T12:20:07;101794.03;;;-4.96;31.91
80640;BME280;69992;60.170;24.692;2024-02-14T12:22:22;101795.22;;;-4.88;31.88
80640;BME280;69992;60.170;24.692;2024-02-14T12:24:50;101798.10;;;-4.83;31.87
80640;BME280;69992;60.170;24.692;2024-02-14T12:27:13;101799.15;;;-3.84;31.86